sensor_id;sensor_type;location;lat;lon;timestamp;pressure;altitude;pressure_sealevel;temperature;humidity
7660;BME280;3872;47.902;8.162;2023-04-25T00:00:14;91269.44;;;9.59;100.00
7660;BME280;3872;47.902;8.162;2023-04-25T00:02:41;91269.00;;;9.57;100.00
7660;BME280;3872;47.902;8.162;2023-04-25T00:05:09;91264.72;;;9.39;100.00
7660;BME280;3872;47.902;8.162;2023-04-25T00:07:36;91269.72;;;9.49;100.00
7660;BME280;3872;47.902;8.162;2023-04-25T00:10:03;91257.81;;;9.82;100.00
7660;BME280;3872;47.902;8.162;2023-04-25T00:12:31;91251.38;;;9.97;100.00
7660;BME280;3872;47.902;8.162;2023-04-25T00:14:58;91257.75;;;9.34;100.00
7660;BME280;3872;47.902;8.162;2023-04-25T00:17:25;91268.38;;;8.85;100.00
7660;BME280;3872;47.902;8.162;2023-04-25T00:19:52;91269.66;;;8.51;100.00
7660;BME280;3872;47.902;8.162;2023-04-25T00:22:18;91272.97;;;8.43;100.00
7660;BME280;3872;47.902;8.162;2023-04-25T00:24:45;91292.47;;;7.69;100.00
7660;BME280;3872;47.902;8.162;2023-04-25T00:27:11;91313.25;;;7.65;100.00
7660;BME280;3872;47.902;8.162;2023-04-25T00:29:39;91326.34;;;6.63;100.00
7660;BME280;3872;47.902;8.162;2023-04-25T00:32:05;91325.22;;;6.88;100.00
7660;BME280;3872;47.902;8.162;2023-04-25T00:34:32;91321.00;;;8.11;100.00
7660;BME280;3872;47.902;8.162;2023-04-25T00:36:59;91321.41;;;7.77;100.00
7660;BME280;3872;47.902;8.162;2023-04-25T00:39:27;91307.53;;;7.91;100.00
7660;BME280;3872;47.902;8.162;2023-04-25T00:41:54;91297.66;;;8.78;100.00
7660;BME280;3872;47.902;8.162;2023-04-25T00:44:21;91286.56;;;9.03;100.00
7660;BME280;3872;47.902;8.162;2023-04-25T00:46:49;91288.06;;;8.96;100.00
7660;BME280;3872;47.902;8.162;2023-04-25T00:49:16;91287.53;;;9.30;100.00
7660;BME280;3872;47.902;8.162;2023-04-25T00:51:43;91280.31;;;8.91;100.00
7660;BME280;3872;47.902;8.162;2023-04-25T00:54:12;91279.81;;;9.33;100.00
7660;BME280;3872;47.902;8.162;2023-04-25T00:56:40;91276.88;;;8.68;100.00
7660;BME280;3872;47.902;8.162;2023-04-25T00:59:07;91269.59;;;9.01;100.00
7660;BME280;3872;47.902;8.162;2023-04-25T01:01:35;91261.84;;;8.60;100.00
7660;BME280;3872;47.902;8.162;2023-04-25T01:04:04;91271.44;;;9.00;100.00
7660;BME280;3872;47.902;8.162;2023-04-25T01:06:31;91270.16;;;8.98;100.00
7660;BME280;3872;47.902;8.162;2023-04-25T01:08:58;91266.28;;;8.95;100.00
7660;BME280;3872;47.902;8.162;2023-04-25T01:11:25;91267.13;;;9.04;100.00
7660;BME280;3872;47.902;8.162;2023-04-25T01:13:52;91256.09;;;9.16;100.00
7660;BME280;3872;47.902;8.162;2023-04-25T01:16:18;91262.38;;;9.07;100.00
7660;BME280;3872;47.902;8.162;2023-04-25T01:18:45;91249.38;;;9.01;100.00
7660;BME280;3872;47.902;8.162;2023-04-25T01:21:14;91249.66;;;8.78;100.00
7660;BME280;3872;47.902;8.162;2023-04-25T01:23:41;91249.78;;;8.95;100.00
7660;BME280;3872;47.902;8.162;2023-04-25T01:26:09;91242.94;;;8.85;100.00
7660;BME280;3872;47.902;8.162;2023-04-25T01:28:37;91252.28;;;9.00;100.00
7660;BME280;3872;47.902;8.162;2023-04-25T01:31:06;91255.22;;;8.98;100.00
7660;BME280;3872;47.902;8.162;2023-04-25T01:33:33;91245.44;;;8.54;100.00
7660;BME280;3872;47.902;8.162;2023-04-25T01:35:59;91248.25;;;8.08;100.00
7660;BME280;3872;47.902;8.162;2023-04-25T01:38:28;91247.81;;;8.29;100.00
7660;BME280;3872;47.902;8.162;2023-04-25T01:40:55;91238.06;;;7.79;100.00
7660;BME280;3872;47.902;8.162;2023-04-25T01:43:22;91237.25;;;8.20;100.00
7660;BME280;3872;47.902;8.162;2023-04-25T01:45:49;91244.28;;;7.70;100.00
7660;BME280;3872;47.902;8.162;2023-04-25T01:48:17;91244.94;;;7.62;100.00
7660;BME280;3872;47.902;8.162;2023-04-25T01:50:45;91241.00;;;8.77;100.00
7660;BME280;3872;47.902;8.162;2023-04-25T01:53:12;91237.44;;;8.73;100.00
7660;BME280;3872;47.902;8.162;2023-04-25T01:55:41;91250.03;;;7.26;100.00
7660;BME280;3872;47.902;8.162;2023-04-25T01:58:11;91244.34;;;6.91;100.00
7660;BME280;3872;47.902;8.162;2023-04-25T02:00:56;91248.78;;;6.21;100.00
7660;BME280;3872;47.902;8.162;2023-04-25T02:03:25;91244.97;;;6.51;100.00
7660;BME280;3872;47.902;8.162;2023-04-25T02:05:53;91253.63;;;6.84;100.00
7660;BME280;3872;47.902;8.162;2023-04-25T02:08:20;91243.78;;;5.58;100.00
7660;BME280;3872;47.902;8.162;2023-04-25T02:10:49;91247.72;;;5.79;100.00
7660;BME280;3872;47.902;8.162;2023-04-25T02:13:18;91251.16;;;6.74;100.00
7660;BME280;3872;47.902;8.162;2023-04-25T02:16:05;91238.78;;;7.12;100.00
7660;BME280;3872;47.902;8.162;2023-04-25T02:18:32;91227.88;;;7.23;100.00
7660;BME280;3872;47.902;8.162;2023-04-25T02:20:59;91232.44;;;5.92;100.00
7660;BME280;3872;47.902;8.162;2023-04-25T02:23:26;91227.09;;;6.58;100.00
7660;BME280;3872;47.902;8.162;2023-04-25T02:25:56;91226.47;;;7.12;100.00
7660;BME280;3872;47.902;8.162;2023-04-25T02:28:23;91226.06;;;7.05;100.00
7660;BME280;3872;47.902;8.162;2023-04-25T02:30:49;91226.47;;;6.10;100.00
7660;BME280;3872;47.902;8.162;2023-04-25T02:33:16;91224.06;;;5.71;100.00
7660;BME280;3872;47.902;8.162;2023-04-25T02:35:43;91223.38;;;6.08;100.00
7660;BME280;3872;47.902;8.162;2023-04-25T02:38:09;91231.94;;;6.32;100.00
7660;BME280;3872;47.902;8.162;2023-04-25T02:40:36;91218.75;;;6.75;100.00
7660;BME280;3872;47.902;8.162;2023-04-25T02:43:03;91224.13;;;7.11;100.00
7660;BME280;3872;47.902;8.162;2023-04-25T02:45:30;91220.41;;;7.30;100.00
7660;BME280;3872;47.902;8.162;2023-04-25T02:47:57;91219.34;;;7.45;100.00
7660;BME280;3872;47.902;8.162;2023-04-25T02:50:23;91219.34;;;7.31;100.00
7660;BME280;3872;47.902;8.162;2023-04-25T02:52:50;91220.22;;;7.68;100.00
7660;BME280;3872;47.902;8.162;2023-04-25T02:55:21;91227.88;;;7.64;100.00
7660;BME280;3872;47.902;8.162;2023-04-25T02:57:48;91223.41;;;7.37;100.00
7660;BME280;3872;47.902;8.162;2023-04-25T03:00:27;91218.78;;;6.88;100.00
7660;BME280;3872;47.902;8.162;2023-04-25T03:02:54;91216.81;;;7.26;100.00
7660;BME280;3872;47.902;8.162;2023-04-25T03:05:20;91205.66;;;7.21;100.00
7660;BME280;3872;47.902;8.162;2023-04-25T03:07:47;91208.28;;;7.48;100.00
7660;BME280;3872;47.902;8.162;2023-04-25T03:10:15;91200.53;;;7.57;100.00
7660;BME280;3872;47.902;8.162;2023-04-25T03:12:41;91201.50;;;7.47;100.00
7660;BME280;3872;47.902;8.162;2023-04-25T03:15:09;91196.25;;;7.74;100.00
7660;BME280;3872;47.902;8.162;2023-04-25T03:17:37;91190.63;;;7.67;100.00
7660;BME280;3872;47.902;8.162;2023-04-25T03:20:05;91199.25;;;7.68;100.00
7660;BME280;3872;47.902;8.162;2023-04-25T03:22:33;91188.72;;;7.59;100.00
7660;BME280;3872;47.902;8.162;2023-04-25T03:25:01;91184.72;;;7.62;100.00
7660;BME280;3872;47.902;8.162;2023-04-25T03:27:28;91190.25;;;7.46;100.00
7660;BME280;3872;47.902;8.162;2023-04-25T03:29:54;91190.06;;;7.43;100.00
7660;BME280;3872;47.902;8.162;2023-04-25T03:32:21;91185.50;;;7.35;100.00
7660;BME280;3872;47.902;8.162;2023-04-25T03:34:49;91182.78;;;7.26;100.00
7660;BME280;3872;47.902;8.162;2023-04-25T03:37:15;91185.56;;;6.89;100.00
7660;BME280;3872;47.902;8.162;2023-04-25T03:39:42;91178.00;;;6.87;100.00
7660;BME280;3872;47.902;8.162;2023-04-25T03:42:09;91180.72;;;6.96;100.00
7660;BME280;3872;47.902;8.162;2023-04-25T03:44:36;91178.88;;;6.96;100.00
7660;BME280;3872;47.902;8.162;2023-04-25T03:47:02;91177.88;;;6.27;100.00
7660;BME280;3872;47.902;8.162;2023-04-25T03:49:29;91181.63;;;5.18;100.00
7660;BME280;3872;47.902;8.162;2023-04-25T03:52:00;91184.06;;;6.18;100.00
7660;BME280;3872;47.902;8.162;2023-04-25T03:54:32;91186.59;;;6.23;100.00
7660;BME280;3872;47.902;8.162;2023-04-25T03:57:19;91178.53;;;6.19;100.00
7660;BME280;3872;47.902;8.162;2023-04-25T03:59:45;91179.16;;;5.50;100.00
7660;BME280;3872;47.902;8.162;2023-04-25T04:02:14;91181.44;;;5.99;100.00
7660;BME280;3872;47.902;8.162;2023-04-25T04:04:41;91182.28;;;5.95;100.00
7660;BME280;3872;47.902;8.162;2023-04-25T04:07:10;91180.78;;;6.07;100.00
7660;BME280;3872;47.902;8.162;2023-04-25T04:09:40;91178.44;;;5.87;100.00
7660;BME280;3872;47.902;8.162;2023-04-25T04:12:11;91170.09;;;5.66;100.00
7660;BME280;3872;47.902;8.162;2023-04-25T04:14:40;91172.88;;;5.75;100.00
7660;BME280;3872;47.902;8.162;2023-04-25T04:17:07;91177.88;;;5.90;100.00
7660;BME280;3872;47.902;8.162;2023-04-25T04:19:33;91172.97;;;6.07;100.00
7660;BME280;3872;47.902;8.162;2023-04-25T04:22:08;91164.09;;;5.84;100.00
7660;BME280;3872;47.902;8.162;2023-04-25T04:24:36;91160.09;;;5.92;100.00
7660;BME280;3872;47.902;8.162;2023-04-25T04:27:06;91164.09;;;5.89;100.00
7660;BME280;3872;47.902;8.162;2023-04-25T04:29:50;91163.13;;;5.80;100.00
7660;BME280;3872;47.902;8.162;2023-04-25T04:32:25;91160.47;;;5.62;100.00
7660;BME280;3872;47.902;8.162;2023-04-25T04:34:53;91163.06;;;5.43;100.00
7660;BME280;3872;47.902;8.162;2023-04-25T04:37:21;91167.47;;;5.24;100.00
7660;BME280;3872;47.902;8.162;2023-04-25T04:39:49;91166.03;;;5.55;100.00
7660;BME280;3872;47.902;8.162;2023-04-25T04:42:28;91163.19;;;5.33;100.00
7660;BME280;3872;47.902;8.162;2023-04-25T04:45:21;91164.94;;;5.19;100.00
7660;BME280;3872;47.902;8.162;2023-04-25T04:48:12;91166.72;;;5.42;100.00
7660;BME280;3872;47.902;8.162;2023-04-25T04:50:58;91163.03;;;5.24;100.00
7660;BME280;3872;47.902;8.162;2023-04-25T04:53:44;91170.03;;;5.47;100.00
7660;BME280;3872;47.902;8.162;2023-04-25T04:56:21;91176.72;;;5.77;100.00
7660;BME280;3872;47.902;8.162;2023-04-25T04:58:54;91175.28;;;5.90;100.00
7660;BME280;3872;47.902;8.162;2023-04-25T05:01:27;91181.16;;;6.01;100.00
7660;BME280;3872;47.902;8.162;2023-04-25T05:04:01;91180.91;;;5.78;100.00
7660;BME280;3872;47.902;8.162;2023-04-25T05:06:48;91170.44;;;6.02;100.00
7660;BME280;3872;47.902;8.162;2023-04-25T05:09:35;91167.16;;;5.92;100.00
7660;BME280;3872;47.902;8.162;2023-04-25T05:12:03;91169.50;;;5.69;100.00
7660;BME280;3872;47.902;8.162;2023-04-25T05:14:54;91167.00;;;5.40;100.00
7660;BME280;3872;47.902;8.162;2023-04-25T05:17:35;91164.28;;;5.50;100.00
7660;BME280;3872;47.902;8.162;2023-04-25T05:20:11;91157.97;;;5.33;100.00
7660;BME280;3872;47.902;8.162;2023-04-25T05:23:05;91170.28;;;5.27;100.00
7660;BME280;3872;47.902;8.162;2023-04-25T05:25:58;91164.59;;;5.01;100.00
7660;BME280;3872;47.902;8.162;2023-04-25T05:28:46;91168.84;;;5.40;100.00
7660;BME280;3872;47.902;8.162;2023-04-25T05:31:32;91165.69;;;5.43;100.00
7660;BME280;3872;47.902;8.162;2023-04-25T05:34:03;91163.31;;;5.46;100.00
7660;BME280;3872;47.902;8.162;2023-04-25T05:36:40;91165.06;;;5.70;100.00
7660;BME280;3872;47.902;8.162;2023-04-25T05:39:07;91165.50;;;5.58;100.00
7660;BME280;3872;47.902;8.162;2023-04-25T05:42:06;91170.53;;;5.73;100.00
7660;BME280;3872;47.902;8.162;2023-04-25T05:44:46;91174.38;;;6.00;100.00
7660;BME280;3872;47.902;8.162;2023-04-25T05:47:31;91171.94;;;5.84;100.00
7660;BME280;3872;47.902;8.162;2023-04-25T05:50:18;91174.06;;;6.20;100.00
7660;BME280;3872;47.902;8.162;2023-04-25T05:53:07;91167.94;;;5.92;100.00
7660;BME280;3872;47.902;8.162;2023-04-25T05:55:38;91172.88;;;6.63;100.00
7660;BME280;3872;47.902;8.162;2023-04-25T05:58:25;91174.31;;;6.56;100.00
7660;BME280;3872;47.902;8.162;2023-04-25T06:00:54;91173.94;;;6.62;100.00
7660;BME280;3872;47.902;8.162;2023-04-25T06:03:22;91180.63;;;6.68;100.00
7660;BME280;3872;47.902;8.162;2023-04-25T06:05:49;91186.56;;;6.42;100.00
7660;BME280;3872;47.902;8.162;2023-04-25T06:08:16;91187.69;;;6.36;100.00
7660;BME280;3872;47.902;8.162;2023-04-25T06:10:42;91181.97;;;6.52;100.00
7660;BME280;3872;47.902;8.162;2023-04-25T06:13:09;91187.63;;;6.41;100.00
7660;BME280;3872;47.902;8.162;2023-04-25T06:15:36;91182.16;;;6.56;100.00
7660;BME280;3872;47.902;8.162;2023-04-25T06:18:04;91187.41;;;6.37;100.00
7660;BME280;3872;47.902;8.162;2023-04-25T06:20:30;91188.13;;;6.75;100.00
7660;BME280;3872;47.902;8.162;2023-04-25T06:22:59;91191.69;;;6.65;100.00
7660;BME280;3872;47.902;8.162;2023-04-25T06:25:35;91190.31;;;6.68;100.00
7660;BME280;3872;47.902;8.162;2023-04-25T06:28:01;91186.09;;;6.72;100.00
7660;BME280;3872;47.902;8.162;2023-04-25T06:30:28;91182.44;;;6.87;100.00
7660;BME280;3872;47.902;8.162;2023-04-25T06:33:01;91186.38;;;6.38;100.00
7660;BME280;3872;47.902;8.162;2023-04-25T06:35:29;91187.09;;;6.90;100.00
7660;BME280;3872;47.902;8.162;2023-04-25T06:37:56;91182.38;;;6.59;100.00
7660;BME280;3872;47.902;8.162;2023-04-25T06:40:23;91182.41;;;6.22;100.00
7660;BME280;3872;47.902;8.162;2023-04-25T06:42:50;91185.00;;;6.41;100.00
7660;BME280;3872;47.902;8.162;2023-04-25T06:45:33;91186.25;;;6.62;100.00
7660;BME280;3872;47.902;8.162;2023-04-25T06:47:59;91176.75;;;6.52;100.00
7660;BME280;3872;47.902;8.162;2023-04-25T06:50:27;91187.06;;;6.44;100.00
7660;BME280;3872;47.902;8.162;2023-04-25T06:52:55;91183.94;;;6.60;100.00
7660;BME280;3872;47.902;8.162;2023-04-25T06:55:22;91181.69;;;6.35;100.00
7660;BME280;3872;47.902;8.162;2023-04-25T06:58:00;91183.81;;;6.33;100.00
7660;BME280;3872;47.902;8.162;2023-04-25T07:00:46;91185.25;;;5.83;100.00
7660;BME280;3872;47.902;8.162;2023-04-25T07:03:12;91194.75;;;5.98;100.00
7660;BME280;3872;47.902;8.162;2023-04-25T07:05:39;91188.88;;;5.68;100.00
7660;BME280;3872;47.902;8.162;2023-04-25T07:08:07;91205.69;;;6.18;100.00
7660;BME280;3872;47.902;8.162;2023-04-25T07:10:34;91195.88;;;5.49;100.00
7660;BME280;3872;47.902;8.162;2023-04-25T07:13:01;91206.56;;;6.14;100.00
7660;BME280;3872;47.902;8.162;2023-04-25T07:15:29;91206.63;;;6.27;100.00
7660;BME280;3872;47.902;8.162;2023-04-25T07:17:57;91202.50;;;6.40;100.00
7660;BME280;3872;47.902;8.162;2023-04-25T07:20:24;91202.06;;;6.71;100.00
7660;BME280;3872;47.902;8.162;2023-04-25T07:22:52;91203.34;;;6.73;100.00
7660;BME280;3872;47.902;8.162;2023-04-25T07:25:20;91203.69;;;6.66;100.00
7660;BME280;3872;47.902;8.162;2023-04-25T07:27:48;91214.81;;;6.40;100.00
7660;BME280;3872;47.902;8.162;2023-04-25T07:30:17;91213.97;;;6.25;100.00
7660;BME280;3872;47.902;8.162;2023-04-25T07:32:43;91218.88;;;6.64;100.00
7660;BME280;3872;47.902;8.162;2023-04-25T07:35:10;91209.75;;;6.81;100.00
7660;BME280;3872;47.902;8.162;2023-04-25T07:37:37;91213.75;;;6.92;100.00
7660;BME280;3872;47.902;8.162;2023-04-25T07:40:24;91209.97;;;6.98;100.00
7660;BME280;3872;47.902;8.162;2023-04-25T07:43:01;91210.59;;;7.08;100.00
7660;BME280;3872;47.902;8.162;2023-04-25T07:45:51;91225.94;;;7.29;100.00
7660;BME280;3872;47.902;8.162;2023-04-25T07:48:18;91218.56;;;7.17;100.00
7660;BME280;3872;47.902;8.162;2023-04-25T07:50:46;91226.59;;;7.21;100.00
7660;BME280;3872;47.902;8.162;2023-04-25T07:53:13;91231.44;;;7.27;100.00
7660;BME280;3872;47.902;8.162;2023-04-25T07:55:49;91224.38;;;7.55;100.00
7660;BME280;3872;47.902;8.162;2023-04-25T07:58:17;91238.53;;;7.54;100.00
7660;BME280;3872;47.902;8.162;2023-04-25T08:00:47;91244.28;;;7.56;100.00
7660;BME280;3872;47.902;8.162;2023-04-25T08:03:32;91256.81;;;6.81;100.00
7660;BME280;3872;47.902;8.162;2023-04-25T08:06:00;91258.28;;;7.33;100.00
7660;BME280;3872;47.902;8.162;2023-04-25T08:08:30;91250.66;;;7.36;100.00
7660;BME280;3872;47.902;8.162;2023-04-25T08:10:58;91258.09;;;6.97;100.00
7660;BME280;3872;47.902;8.162;2023-04-25T08:13:26;91266.84;;;7.38;100.00
7660;BME280;3872;47.902;8.162;2023-04-25T08:15:52;91266.47;;;7.31;100.00
7660;BME280;3872;47.902;8.162;2023-04-25T08:18:20;91274.53;;;6.84;100.00
7660;BME280;3872;47.902;8.162;2023-04-25T08:20:48;91277.34;;;7.52;100.00
7660;BME280;3872;47.902;8.162;2023-04-25T08:23:15;91279.00;;;6.64;100.00
7660;BME280;3872;47.902;8.162;2023-04-25T08:25:53;91284.97;;;5.85;100.00
7660;BME280;3872;47.902;8.162;2023-04-25T08:28:26;91284.53;;;6.44;100.00
7660;BME280;3872;47.902;8.162;2023-04-25T08:30:53;91295.91;;;7.04;100.00
7660;BME280;3872;47.902;8.162;2023-04-25T08:33:19;91302.59;;;6.22;100.00
7660;BME280;3872;47.902;8.162;2023-04-25T08:35:58;91307.69;;;5.84;100.00
7660;BME280;3872;47.902;8.162;2023-04-25T08:38:26;91310.69;;;6.82;100.00
7660;BME280;3872;47.902;8.162;2023-04-25T08:40:54;91317.94;;;7.96;100.00
7660;BME280;3872;47.902;8.162;2023-04-25T08:43:23;91320.19;;;6.91;100.00
7660;BME280;3872;47.902;8.162;2023-04-25T08:45:53;91328.28;;;7.27;100.00
7660;BME280;3872;47.902;8.162;2023-04-25T08:48:32;91342.34;;;7.31;100.00
7660;BME280;3872;47.902;8.162;2023-04-25T08:51:01;91336.06;;;7.14;100.00
7660;BME280;3872;47.902;8.162;2023-04-25T08:53:31;91338.06;;;6.84;100.00
7660;BME280;3872;47.902;8.162;2023-04-25T08:56:01;91344.22;;;6.93;100.00
7660;BME280;3872;47.902;8.162;2023-04-25T08:58:28;91343.16;;;6.76;100.00
7660;BME280;3872;47.902;8.162;2023-04-25T09:00:56;91359.22;;;6.88;100.00
7660;BME280;3872;47.902;8.162;2023-04-25T09:03:26;91359.44;;;7.10;100.00
7660;BME280;3872;47.902;8.162;2023-04-25T09:05:53;91362.38;;;7.55;100.00
7660;BME280;3872;47.902;8.162;2023-04-25T09:08:21;91363.94;;;7.56;100.00
7660;BME280;3872;47.902;8.162;2023-04-25T09:10:48;91374.75;;;6.18;100.00
7660;BME280;3872;47.902;8.162;2023-04-25T09:13:17;91374.44;;;7.37;100.00
7660;BME280;3872;47.902;8.162;2023-04-25T09:16:09;91373.38;;;7.70;100.00
7660;BME280;3872;47.902;8.162;2023-04-25T09:18:55;91378.19;;;7.96;100.00
7660;BME280;3872;47.902;8.162;2023-04-25T09:21:22;91379.69;;;6.43;100.00
7660;BME280;3872;47.902;8.162;2023-04-25T09:23:49;91379.47;;;7.33;100.00
7660;BME280;3872;47.902;8.162;2023-04-25T09:26:18;91391.06;;;6.05;100.00
7660;BME280;3872;47.902;8.162;2023-04-25T09:28:45;91384.63;;;7.71;100.00
7660;BME280;3872;47.902;8.162;2023-04-25T09:31:22;91393.13;;;7.63;100.00
7660;BME280;3872;47.902;8.162;2023-04-25T09:33:50;91393.78;;;7.87;100.00
7660;BME280;3872;47.902;8.162;2023-04-25T09:36:26;91396.69;;;7.85;100.00
7660;BME280;3872;47.902;8.162;2023-04-25T09:39:21;91385.59;;;7.10;100.00
7660;BME280;3872;47.902;8.162;2023-04-25T09:41:55;91392.38;;;8.22;100.00
7660;BME280;3872;47.902;8.162;2023-04-25T09:44:23;91408.06;;;6.31;100.00
7660;BME280;3872;47.902;8.162;2023-04-25T09:46:52;91401.25;;;6.06;100.00
7660;BME280;3872;47.902;8.162;2023-04-25T09:49:22;91406.38;;;7.01;100.00
7660;BME280;3872;47.902;8.162;2023-04-25T09:52:04;91403.53;;;5.84;100.00
7660;BME280;3872;47.902;8.162;2023-04-25T09:54:38;91406.41;;;6.59;100.00
7660;BME280;3872;47.902;8.162;2023-04-25T09:57:13;91408.13;;;6.87;100.00
7660;BME280;3872;47.902;8.162;2023-04-25T09:59:44;91411.22;;;6.89;100.00
7660;BME280;3872;47.902;8.162;2023-04-25T10:02:13;91408.59;;;6.28;100.00
7660;BME280;3872;47.902;8.162;2023-04-25T10:04:40;91416.81;;;6.40;100.00
7660;BME280;3872;47.902;8.162;2023-04-25T10:07:30;91425.50;;;6.59;100.00
7660;BME280;3872;47.902;8.162;2023-04-25T10:10:00;91431.34;;;6.51;100.00
7660;BME280;3872;47.902;8.162;2023-04-25T10:12:27;91435.63;;;7.60;100.00
7660;BME280;3872;47.902;8.162;2023-04-25T10:14:55;91438.47;;;7.07;100.00
7660;BME280;3872;47.902;8.162;2023-04-25T10:17:23;91441.22;;;6.07;100.00
7660;BME280;3872;47.902;8.162;2023-04-25T10:19:50;91436.91;;;6.87;100.00
7660;BME280;3872;47.902;8.162;2023-04-25T10:22:22;91435.22;;;6.54;100.00
7660;BME280;3872;47.902;8.162;2023-04-25T10:24:50;91432.53;;;7.20;100.00
7660;BME280;3872;47.902;8.162;2023-04-25T10:27:18;91438.47;;;7.07;100.00
7660;BME280;3872;47.902;8.162;2023-04-25T10:29:44;91433.31;;;7.21;100.00
7660;BME280;3872;47.902;8.162;2023-04-25T10:32:11;91425.75;;;7.70;100.00
7660;BME280;3872;47.902;8.162;2023-04-25T10:34:40;91438.53;;;7.58;100.00
7660;BME280;3872;47.902;8.162;2023-04-25T10:37:09;91432.38;;;7.12;100.00
7660;BME280;3872;47.902;8.162;2023-04-25T10:39:38;91433.72;;;8.25;100.00
7660;BME280;3872;47.902;8.162;2023-04-25T10:42:05;91442.13;;;7.62;100.00
7660;BME280;3872;47.902;8.162;2023-04-25T10:44:33;91433.00;;;8.79;100.00
7660;BME280;3872;47.902;8.162;2023-04-25T10:47:01;91442.31;;;7.98;100.00
7660;BME280;3872;47.902;8.162;2023-04-25T10:49:32;91441.44;;;9.39;100.00
7660;BME280;3872;47.902;8.162;2023-04-25T10:52:19;91443.06;;;9.49;100.00
7660;BME280;3872;47.902;8.162;2023-04-25T10:54:52;91449.66;;;9.11;100.00
7660;BME280;3872;47.902;8.162;2023-04-25T10:57:29;91444.94;;;10.46;100.00
7660;BME280;3872;47.902;8.162;2023-04-25T11:00:01;91451.00;;;10.25;100.00
7660;BME280;3872;47.902;8.162;2023-04-25T11:02:31;91457.09;;;10.34;100.00
7660;BME280;3872;47.902;8.162;2023-04-25T11:04:58;91467.03;;;9.34;100.00
7660;BME280;3872;47.902;8.162;2023-04-25T11:07:34;91458.97;;;10.64;100.00
7660;BME280;3872;47.902;8.162;2023-04-25T11:10:03;91460.00;;;10.01;100.00
7660;BME280;3872;47.902;8.162;2023-04-25T11:12:30;91458.84;;;9.94;100.00
7660;BME280;3872;47.902;8.162;2023-04-25T11:15:01;91455.34;;;10.51;100.00
7660;BME280;3872;47.902;8.162;2023-04-25T11:17:29;91469.88;;;9.10;100.00
7660;BME280;3872;47.902;8.162;2023-04-25T11:19:56;91465.28;;;9.88;100.00
7660;BME280;3872;47.902;8.162;2023-04-25T11:22:23;91461.41;;;10.07;100.00
7660;BME280;3872;47.902;8.162;2023-04-25T11:24:51;91458.78;;;11.00;98.86
7660;BME280;3872;47.902;8.162;2023-04-25T11:27:17;91448.13;;;11.31;97.03
7660;BME280;3872;47.902;8.162;2023-04-25T11:29:44;91449.03;;;10.61;100.00
7660;BME280;3872;47.902;8.162;2023-04-25T11:32:13;91475.94;;;8.83;100.00
7660;BME280;3872;47.902;8.162;2023-04-25T11:34:43;91466.63;;;9.99;100.00
7660;BME280;3872;47.902;8.162;2023-04-25T11:37:10;91454.63;;;10.29;100.00
7660;BME280;3872;47.902;8.162;2023-04-25T11:39:37;91466.00;;;9.57;100.00
7660;BME280;3872;47.902;8.162;2023-04-25T11:42:06;91457.34;;;10.54;100.00
7660;BME280;3872;47.902;8.162;2023-04-25T11:44:32;91455.25;;;10.74;98.52
7660;BME280;3872;47.902;8.162;2023-04-25T11:47:00;91457.97;;;10.51;100.00
7660;BME280;3872;47.902;8.162;2023-04-25T11:49:30;91454.81;;;10.72;99.06
7660;BME280;3872;47.902;8.162;2023-04-25T11:51:56;91467.59;;;10.56;100.00
7660;BME280;3872;47.902;8.162;2023-04-25T11:54:23;91467.25;;;9.60;100.00
7660;BME280;3872;47.902;8.162;2023-04-25T11:56:49;91464.84;;;10.39;100.00
7660;BME280;3872;47.902;8.162;2023-04-25T11:59:23;91465.53;;;10.00;100.00
7660;BME280;3872;47.902;8.162;2023-04-25T12:01:50;91471.81;;;10.12;100.00
7660;BME280;3872;47.902;8.162;2023-04-25T12:04:18;91472.47;;;9.96;100.00
7660;BME280;3872;47.902;8.162;2023-04-25T12:06:46;91458.72;;;11.57;93.33
7660;BME280;3872;47.902;8.162;2023-04-25T12:09:15;91471.94;;;9.13;100.00
7660;BME280;3872;47.902;8.162;2023-04-25T12:11:43;91473.22;;;9.52;100.00
7660;BME280;3872;47.902;8.162;2023-04-25T12:14:11;91478.16;;;8.90;100.00
7660;BME280;3872;47.902;8.162;2023-04-25T12:16:44;91479.31;;;9.11;100.00
7660;BME280;3872;47.902;8.162;2023-04-25T12:19:13;91478.50;;;8.29;100.00
7660;BME280;3872;47.902;8.162;2023-04-25T12:21:40;91478.97;;;9.76;100.00
7660;BME280;3872;47.902;8.162;2023-04-25T12:24:10;91478.16;;;8.90;100.00
7660;BME280;3872;47.902;8.162;2023-04-25T12:26:50;91479.47;;;9.42;100.00
7660;BME280;3872;47.902;8.162;2023-04-25T12:29:19;91494.00;;;8.57;100.00
7660;BME280;3872;47.902;8.162;2023-04-25T12:31:48;91500.13;;;9.08;100.00
7660;BME280;3872;47.902;8.162;2023-04-25T12:34:15;91503.63;;;8.62;100.00
7660;BME280;3872;47.902;8.162;2023-04-25T12:36:41;91505.00;;;9.14;100.00
7660;BME280;3872;47.902;8.162;2023-04-25T12:39:08;91515.84;;;7.69;100.00
7660;BME280;3872;47.902;8.162;2023-04-25T12:41:35;91520.69;;;7.81;100.00
7660;BME280;3872;47.902;8.162;2023-04-25T12:44:02;91520.31;;;7.50;100.00
7660;BME280;3872;47.902;8.162;2023-04-25T12:46:29;91524.66;;;6.98;100.00
7660;BME280;3872;47.902;8.162;2023-04-25T12:48:57;91518.63;;;8.10;100.00
7660;BME280;3872;47.902;8.162;2023-04-25T12:51:24;91518.53;;;10.15;100.00
7660;BME280;3872;47.902;8.162;2023-04-25T12:53:51;91514.41;;;10.76;100.00
7660;BME280;3872;47.902;8.162;2023-04-25T12:56:18;91505.50;;;13.10;97.99
7660;BME280;3872;47.902;8.162;2023-04-25T12:58:45;91501.25;;;14.05;91.03
7660;BME280;3872;47.902;8.162;2023-04-25T13:01:12;91506.88;;;12.69;100.00
7660;BME280;3872;47.902;8.162;2023-04-25T13:03:39;91515.09;;;12.85;99.13
7660;BME280;3872;47.902;8.162;2023-04-25T13:06:07;91506.78;;;12.57;97.94
7660;BME280;3872;47.902;8.162;2023-04-25T13:08:34;91502.31;;;11.80;100.00
7660;BME280;3872;47.902;8.162;2023-04-25T13:11:02;91502.16;;;12.92;95.56
7660;BME280;3872;47.902;8.162;2023-04-25T13:13:28;91498.75;;;13.29;93.37
7660;BME280;3872;47.902;8.162;2023-04-25T13:15:56;91495.63;;;15.06;85.65
7660;BME280;3872;47.902;8.162;2023-04-25T13:18:23;91495.22;;;14.71;70.08
7660;BME280;3872;47.902;8.162;2023-04-25T13:20:51;91489.63;;;14.39;76.78
7660;BME280;3872;47.902;8.162;2023-04-25T13:23:19;91488.88;;;15.08;73.45
7660;BME280;3872;47.902;8.162;2023-04-25T13:25:46;91485.41;;;15.53;71.10
7660;BME280;3872;47.902;8.162;2023-04-25T13:28:13;91486.34;;;16.65;61.83
7660;BME280;3872;47.902;8.162;2023-04-25T13:30:40;91496.72;;;13.35;65.67
7660;BME280;3872;47.902;8.162;2023-04-25T13:33:06;91501.06;;;12.29;71.18
7660;BME280;3872;47.902;8.162;2023-04-25T13:35:34;91509.06;;;12.67;86.22
7660;BME280;3872;47.902;8.162;2023-04-25T13:38:01;91496.88;;;12.02;83.48